sensor_id;sensor_type;location;lat;lon;timestamp;pressure;altitude;pressure_sealevel;temperature;humidity
59531;BME280;45349;48.692;8.186;2024-03-23T00:51:56;149832.63;;;14.92;66.54
59531;BME280;45349;48.692;8.186;2024-03-23T00:54:22;149815.13;;;14.85;66.43
59531;BME280;45349;48.692;8.186;2024-03-23T00:56:48;149843.81;;;14.97;66.73
59531;BME280;45349;48.692;8.186;2024-03-23T00:59:15;149825.13;;;14.89;66.55
59531;BME280;45349;48.692;8.186;2024-03-23T01:01:40;149822.63;;;14.88;66.68
59531;BME280;45349;48.692;8.186;2024-03-23T01:04:07;149817.63;;;14.86;66.91
59531;BME280;45349;48.692;8.186;2024-03-23T01:06:32;149817.63;;;14.86;66.99
59531;BME280;45349;48.692;8.186;2024-03-23T01:09:00;149813.84;;;14.84;66.33
59531;BME280;45349;48.692;8.186;2024-03-23T01:11:27;149820.13;;;14.87;66.38
59531;BME280;45349;48.692;8.186;2024-03-23T01:13:54;149816.34;;;14.85;64.81
59531;BME280;45349;48.692;8.186;2024-03-23T01:16:21;149775.13;;;14.68;67.49
59531;BME280;45349;48.692;8.186;2024-03-23T01:18:48;149758.91;;;14.61;66.75
59531;BME280;45349;48.692;8.186;2024-03-23T01:21:13;149715.16;;;14.43;68.71
59531;BME280;45349;48.692;8.186;2024-03-23T01:23:40;149703.97;;;14.39;68.26
59531;BME280;45349;48.692;8.186;2024-03-23T01:26:07;149671.50;;;14.25;68.93
59531;BME280;45349;48.692;8.186;2024-03-23T01:28:33;149645.31;;;14.14;69.83
59531;BME280;45349;48.692;8.186;2024-03-23T01:30:59;149620.34;;;14.04;70.69
59531;BME280;45349;48.692;8.186;2024-03-23T01:33:26;149609.06;;;13.99;70.51
59531;BME280;45349;48.692;8.186;2024-03-23T01:35:51;149604.09;;;13.97;71.42
59531;BME280;45349;48.692;8.186;2024-03-23T01:38:18;149582.88;;;13.88;71.77
59531;BME280;45349;48.692;8.186;2024-03-23T01:40:43;149560.41;;;13.79;72.38
59531;BME280;45349;48.692;8.186;2024-03-23T01:43:11;149540.44;;;13.71;72.70
59531;BME280;45349;48.692;8.186;2024-03-23T01:45:37;149513.00;;;13.60;73.93
59531;BME280;45349;48.692;8.186;2024-03-23T01:48:05;149489.31;;;13.50;74.93
59531;BME280;45349;48.692;8.186;2024-03-23T01:50:31;149435.56;;;13.27;76.08
59531;BME280;45349;48.692;8.186;2024-03-23T01:52:59;149390.72;;;13.09;77.67
59531;BME280;45349;48.692;8.186;2024-03-23T01:55:25;149340.81;;;12.88;79.37
59531;BME280;45349;48.692;8.186;2024-03-23T01:57:52;149307.09;;;12.74;79.88
59531;BME280;45349;48.692;8.186;2024-03-23T02:00:19;149280.94;;;12.63;81.40
59531;BME280;45349;48.692;8.186;2024-03-23T02:02:46;149319.56;;;12.79;79.71
59531;BME280;45349;48.692;8.186;2024-03-23T02:05:13;149352.00;;;12.93;78.87
59531;BME280;45349;48.692;8.186;2024-03-23T02:07:40;149385.72;;;13.07;78.63
59531;BME280;45349;48.692;8.186;2024-03-23T02:10:06;149394.44;;;13.10;78.33
59531;BME280;45349;48.692;8.186;2024-03-23T02:12:35;149406.91;;;13.16;77.27
59531;BME280;45349;48.692;8.186;2024-03-23T02:15:01;149418.16;;;13.20;78.29
59531;BME280;45349;48.692;8.186;2024-03-23T02:17:30;149420.66;;;13.21;78.16
59531;BME280;45349;48.692;8.186;2024-03-23T02:19:55;149411.88;;;13.18;78.38
59531;BME280;45349;48.692;8.186;2024-03-23T02:22:22;149394.44;;;13.10;79.20
59531;BME280;45349;48.692;8.186;2024-03-23T02:24:49;149401.91;;;13.13;78.93
59531;BME280;45349;48.692;8.186;2024-03-23T02:27:16;149398.19;;;13.12;79.17
59531;BME280;45349;48.692;8.186;2024-03-23T02:29:41;149401.91;;;13.13;80.56
59531;BME280;45349;48.692;8.186;2024-03-23T02:32:08;149403.19;;;13.14;79.47
59531;BME280;45349;48.692;8.186;2024-03-23T02:34:34;149390.72;;;13.09;80.58
59531;BME280;45349;48.692;8.186;2024-03-23T02:37:01;149409.41;;;13.17;80.96
59531;BME280;45349;48.692;8.186;2024-03-23T02:39:26;149401.91;;;13.13;81.06
59531;BME280;45349;48.692;8.186;2024-03-23T02:41:54;149410.66;;;13.17;80.32
59531;BME280;45349;48.692;8.186;2024-03-23T02:44:20;149446.81;;;13.32;80.21
59531;BME280;45349;48.692;8.186;2024-03-23T02:46:47;149438.06;;;13.28;81.74
59531;BME280;45349;48.692;8.186;2024-03-23T02:49:13;149456.81;;;13.36;79.49
59531;BME280;45349;48.692;8.186;2024-03-23T02:51:39;149435.56;;;13.27;79.52
59531;BME280;45349;48.692;8.186;2024-03-23T02:54:06;149400.69;;;13.13;81.92
59531;BME280;45349;48.692;8.186;2024-03-23T02:56:33;149374.47;;;13.02;81.98
59531;BME280;45349;48.692;8.186;2024-03-23T02:59:00;149339.53;;;12.88;82.46
59531;BME280;45349;48.692;8.186;2024-03-23T03:01:27;149330.81;;;12.84;83.26
59531;BME280;45349;48.692;8.186;2024-03-23T03:03:52;149312.09;;;12.76;84.17
59531;BME280;45349;48.692;8.186;2024-03-23T03:06:25;149319.56;;;12.79;83.97
59531;BME280;45349;48.692;8.186;2024-03-23T03:08:50;149322.06;;;12.80;84.81
59531;BME280;45349;48.692;8.186;2024-03-23T03:11:17;149319.56;;;12.79;84.74
59531;BME280;45349;48.692;8.186;2024-03-23T03:13:43;149371.97;;;13.01;83.04
59531;BME280;45349;48.692;8.186;2024-03-23T03:16:11;149384.44;;;13.06;83.54
59531;BME280;45349;48.692;8.186;2024-03-23T03:18:37;149403.19;;;13.14;82.89
59531;BME280;45349;48.692;8.186;2024-03-23T03:21:04;149421.88;;;13.22;82.36
59531;BME280;45349;48.692;8.186;2024-03-23T03:23:31;149421.88;;;13.22;81.88
59531;BME280;45349;48.692;8.186;2024-03-23T03:26:01;149426.88;;;13.24;81.31
59531;BME280;45349;48.692;8.186;2024-03-23T03:28:27;149431.84;;;13.26;80.92
59531;BME280;45349;48.692;8.186;2024-03-23T03:30:56;149290.91;;;12.67;85.06
59531;BME280;45349;48.692;8.186;2024-03-23T03:33:23;149206.09;;;12.32;90.66
59531;BME280;45349;48.692;8.186;2024-03-23T03:35:49;149118.81;;;11.96;95.92
59531;BME280;45349;48.692;8.186;2024-03-23T03:38:17;149024.09;;;11.57;100.00
59531;BME280;45349;48.692;8.186;2024-03-23T03:40:43;149022.88;;;11.56;100.00
59531;BME280;45349;48.692;8.186;2024-03-23T03:43:09;148938.13;;;11.21;100.00
59531;BME280;45349;48.692;8.186;2024-03-23T03:45:36;148918.19;;;11.13;100.00
59531;BME280;45349;48.692;8.186;2024-03-23T03:48:01;148907.00;;;11.08;100.00
59531;BME280;45349;48.692;8.186;2024-03-23T03:50:29;148895.75;;;11.03;100.00
59531;BME280;45349;48.692;8.186;2024-03-23T03:52:55;148865.84;;;10.91;100.00
59531;BME280;45349;48.692;8.186;2024-03-23T03:55:22;148854.66;;;10.86;100.00
59531;BME280;45349;48.692;8.186;2024-03-23T03:57:48;148853.41;;;10.86;100.00
59531;BME280;45349;48.692;8.186;2024-03-23T04:00:15;148839.72;;;10.80;100.00
59531;BME280;45349;48.692;8.186;2024-03-23T04:02:41;148839.72;;;10.80;100.00
59531;BME280;45349;48.692;8.186;2024-03-23T04:05:08;148818.53;;;10.71;100.00
59531;BME280;45349;48.692;8.186;2024-03-23T04:07:34;148802.34;;;10.65;100.00
59531;BME280;45349;48.692;8.186;2024-03-23T04:10:01;148787.41;;;10.58;100.00
59531;BME280;45349;48.692;8.186;2024-03-23T04:12:27;148745.06;;;10.41;100.00
59531;BME280;45349;48.692;8.186;2024-03-23T04:14:54;148758.78;;;10.46;100.00
59531;BME280;45349;48.692;8.186;2024-03-23T04:17:20;148733.81;;;10.36;100.00
59531;BME280;45349;48.692;8.186;2024-03-23T04:19:46;148693.97;;;10.19;100.00
59531;BME280;45349;48.692;8.186;2024-03-23T04:22:12;148690.22;;;10.18;100.00
59531;BME280;45349;48.692;8.186;2024-03-23T04:24:40;148691.47;;;10.18;100.00
59531;BME280;45349;48.692;8.186;2024-03-23T04:27:06;148681.53;;;10.14;100.00
59531;BME280;45349;48.692;8.186;2024-03-23T04:29:32;148666.59;;;10.08;100.00
59531;BME280;45349;48.692;8.186;2024-03-23T04:31:58;148649.16;;;10.01;100.00
59531;BME280;45349;48.692;8.186;2024-03-23T04:34:26;148645.44;;;9.99;100.00
59531;BME280;45349;48.692;8.186;2024-03-23T04:36:51;148652.91;;;10.02;100.00
59531;BME280;45349;48.692;8.186;2024-03-23T04:39:19;148636.69;;;9.96;100.00
59531;BME280;45349;48.692;8.186;2024-03-23T04:41:47;148624.25;;;9.90;100.00
59531;BME280;45349;48.692;8.186;2024-03-23T04:44:14;148630.50;;;9.93;100.00
59531;BME280;45349;48.692;8.186;2024-03-23T04:46:40;148615.56;;;9.87;100.00
59531;BME280;45349;48.692;8.186;2024-03-23T04:49:07;148606.81;;;9.83;100.00
59531;BME280;45349;48.692;8.186;2024-03-23T04:51:35;148573.22;;;9.69;100.00
59531;BME280;45349;48.692;8.186;2024-03-23T04:54:02;148555.81;;;9.62;100.00
59531;BME280;45349;48.692;8.186;2024-03-23T04:56:31;148534.66;;;9.53;100.00
59531;BME280;45349;48.692;8.186;2024-03-23T04:58:59;148529.69;;;9.51;100.00
59531;BME280;45349;48.692;8.186;2024-03-23T05:01:27;148514.75;;;9.45;100.00
59531;BME280;45349;48.692;8.186;2024-03-23T05:03:53;148498.53;;;9.38;100.00
59531;BME280;45349;48.692;8.186;2024-03-23T05:06:19;148488.59;;;9.34;100.00
59531;BME280;45349;48.692;8.186;2024-03-23T05:08:46;148483.59;;;9.32;100.00
59531;BME280;45349;48.692;8.186;2024-03-23T05:11:11;148469.94;;;9.26;100.00
59531;BME280;45349;48.692;8.186;2024-03-23T05:13:38;148440.06;;;9.14;100.00
59531;BME280;45349;48.692;8.186;2024-03-23T05:16:05;148422.66;;;9.07;100.00
59531;BME280;45349;48.692;8.186;2024-03-23T05:18:32;148405.25;;;8.99;100.00
59531;BME280;45349;48.692;8.186;2024-03-23T05:20:58;148400.25;;;8.97;100.00
59531;BME280;45349;48.692;8.186;2024-03-23T05:23:25;148375.38;;;8.87;100.00
59531;BME280;45349;48.692;8.186;2024-03-23T05:25:51;148370.41;;;8.85;100.00
59531;BME280;45349;48.692;8.186;2024-03-23T05:28:18;148330.59;;;8.68;100.00
59531;BME280;45349;48.692;8.186;2024-03-23T05:30:50;148299.50;;;8.55;100.00
59531;BME280;45349;48.692;8.186;2024-03-23T05:33:18;148320.63;;;8.64;100.00
59531;BME280;45349;48.692;8.186;2024-03-23T05:35:43;148284.59;;;8.49;100.00
59531;BME280;45349;48.692;8.186;2024-03-23T05:38:10;148264.63;;;8.41;100.00
59531;BME280;45349;48.692;8.186;2024-03-23T05:40:36;148234.78;;;8.28;100.00
59531;BME280;45349;48.692;8.186;2024-03-23T05:43:05;148222.34;;;8.23;100.00
59531;BME280;45349;48.692;8.186;2024-03-23T05:45:31;148241.03;;;8.31;100.00
59531;BME280;45349;48.692;8.186;2024-03-23T05:47:58;148232.31;;;8.27;100.00
59531;BME280;45349;48.692;8.186;2024-03-23T05:50:25;148212.41;;;8.19;100.00
59531;BME280;45349;48.692;8.186;2024-03-23T05:52:52;148227.34;;;8.25;100.00
59531;BME280;45349;48.692;8.186;2024-03-23T05:55:18;148223.63;;;8.24;100.00
59531;BME280;45349;48.692;8.186;2024-03-23T05:57:45;148218.66;;;8.22;100.00
59531;BME280;45349;48.692;8.186;2024-03-23T06:00:11;148227.34;;;8.25;100.00
59531;BME280;45349;48.692;8.186;2024-03-23T06:02:42;148207.44;;;8.17;100.00
59531;BME280;45349;48.692;8.186;2024-03-23T06:05:10;148218.66;;;8.22;100.00
59531;BME280;45349;48.692;8.186;2024-03-23T06:07:38;148209.91;;;8.18;100.00
59531;BME280;45349;48.692;8.186;2024-03-23T06:10:04;148208.69;;;8.18;100.00
59531;BME280;45349;48.692;8.186;2024-03-23T06:12:31;148214.91;;;8.20;100.00
59531;BME280;45349;48.692;8.186;2024-03-23T06:14:57;148207.44;;;8.17;100.00
59531;BME280;45349;48.692;8.186;2024-03-23T06:17:23;148187.53;;;8.09;100.00
59531;BME280;45349;48.692;8.186;2024-03-23T06:19:49;148201.22;;;8.15;100.00
59531;BME280;45349;48.692;8.186;2024-03-23T06:22:16;148199.97;;;8.14;100.00
59531;BME280;45349;48.692;8.186;2024-03-23T06:24:44;148192.50;;;8.11;100.00
59531;BME280;45349;48.692;8.186;2024-03-23T06:27:10;148134.09;;;7.87;100.00
59531;BME280;45349;48.692;8.186;2024-03-23T06:29:36;148145.31;;;7.91;100.00
59531;BME280;45349;48.692;8.186;2024-03-23T06:32:03;148114.19;;;7.78;100.00
59531;BME280;45349;48.692;8.186;2024-03-23T06:34:29;148116.69;;;7.79;100.00
59531;BME280;45349;48.692;8.186;2024-03-23T06:36:56;148096.78;;;7.71;100.00
59531;BME280;45349;48.692;8.186;2024-03-23T06:39:22;148095.56;;;7.71;100.00
59531;BME280;45349;48.692;8.186;2024-03-23T06:41:53;148106.75;;;7.75;100.00
59531;BME280;45349;48.692;8.186;2024-03-23T06:44:19;148106.75;;;7.75;100.00
59531;BME280;45349;48.692;8.186;2024-03-23T06:46:46;148108.00;;;7.76;100.00
59531;BME280;45349;48.692;8.186;2024-03-23T06:49:12;148100.56;;;7.73;100.00
59531;BME280;45349;48.692;8.186;2024-03-23T06:51:38;148105.53;;;7.75;100.00
59531;BME280;45349;48.692;8.186;2024-03-23T06:54:05;148101.75;;;7.73;100.00
59531;BME280;45349;48.692;8.186;2024-03-23T06:56:31;148065.75;;;7.58;100.00
59531;BME280;45349;48.692;8.186;2024-03-23T06:58:59;148060.78;;;7.56;100.00
59531;BME280;45349;48.692;8.186;2024-03-23T07:01:26;148069.44;;;7.60;100.00
59531;BME280;45349;48.692;8.186;2024-03-23T07:03:51;148075.69;;;7.62;100.00
59531;BME280;45349;48.692;8.186;2024-03-23T07:06:18;148069.44;;;7.60;100.00
59531;BME280;45349;48.692;8.186;2024-03-23T07:08:43;148073.19;;;7.61;100.00
59531;BME280;45349;48.692;8.186;2024-03-23T07:11:10;148044.59;;;7.49;100.00
59531;BME280;45349;48.692;8.186;2024-03-23T07:13:36;148044.59;;;7.49;100.00
59531;BME280;45349;48.692;8.186;2024-03-23T07:16:04;148052.03;;;7.52;100.00
59531;BME280;45349;48.692;8.186;2024-03-23T07:18:30;148060.78;;;7.56;100.00
59531;BME280;45349;48.692;8.186;2024-03-23T07:20:57;148076.91;;;7.63;100.00
59531;BME280;45349;48.692;8.186;2024-03-23T07:23:23;148071.94;;;7.61;100.00
59531;BME280;45349;48.692;8.186;2024-03-23T07:25:57;148076.91;;;7.63;100.00
59531;BME280;45349;48.692;8.186;2024-03-23T07:28:22;148060.78;;;7.56;100.00
59531;BME280;45349;48.692;8.186;2024-03-23T07:31:03;148074.41;;;7.62;100.00
59531;BME280;45349;48.692;8.186;2024-03-23T07:33:29;148063.25;;;7.57;100.00
59531;BME280;45349;48.692;8.186;2024-03-23T07:35:56;148085.63;;;7.66;100.00
59531;BME280;45349;48.692;8.186;2024-03-23T07:38:23;148066.97;;;7.59;100.00
59531;BME280;45349;48.692;8.186;2024-03-23T07:40:49;148066.97;;;7.59;100.00
59531;BME280;45349;48.692;8.186;2024-03-23T07:43:20;148071.94;;;7.61;100.00
59531;BME280;45349;48.692;8.186;2024-03-23T07:45:51;148086.84;;;7.67;100.00
59531;BME280;45349;48.692;8.186;2024-03-23T07:48:21;148071.94;;;7.61;100.00
59531;BME280;45349;48.692;8.186;2024-03-23T07:50:56;148066.97;;;7.59;100.00
59531;BME280;45349;48.692;8.186;2024-03-23T07:53:23;148052.03;;;7.52;100.00
59531;BME280;45349;48.692;8.186;2024-03-23T07:55:53;148073.19;;;7.61;99.27
59531;BME280;45349;48.692;8.186;2024-03-23T07:58:20;148078.16;;;7.63;99.87
59531;BME280;45349;48.692;8.186;2024-03-23T08:00:45;148099.28;;;7.72;99.23
59531;BME280;45349;48.692;8.186;2024-03-23T08:03:12;148124.16;;;7.82;98.24
59531;BME280;45349;48.692;8.186;2024-03-23T08:05:39;148129.13;;;7.85;98.76
59531;BME280;45349;48.692;8.186;2024-03-23T08:08:06;148151.50;;;7.94;96.71
59531;BME280;45349;48.692;8.186;2024-03-23T08:10:31;148175.09;;;8.04;97.39
59531;BME280;45349;48.692;8.186;2024-03-23T08:12:58;148177.59;;;8.05;96.34
59531;BME280;45349;48.692;8.186;2024-03-23T08:15:24;148173.88;;;8.03;96.49
59531;BME280;45349;48.692;8.186;2024-03-23T08:17:51;148241.03;;;8.31;94.24
59531;BME280;45349;48.692;8.186;2024-03-23T08:20:17;148183.81;;;8.07;85.92
59531;BME280;45349;48.692;8.186;2024-03-23T08:22:45;148227.34;;;8.25;86.25
59531;BME280;45349;48.692;8.186;2024-03-23T08:25:10;148167.63;;;8.01;84.20
59531;BME280;45349;48.692;8.186;2024-03-23T08:27:37;148167.63;;;8.01;83.50
59531;BME280;45349;48.692;8.186;2024-03-23T08:30:03;148155.19;;;7.95;86.05
59531;BME280;45349;48.692;8.186;2024-03-23T08:32:30;148157.69;;;7.96;87.63
59531;BME280;45349;48.692;8.186;2024-03-23T08:34:56;148173.88;;;8.03;87.56
59531;BME280;45349;48.692;8.186;2024-03-23T08:37:22;148101.75;;;7.73;88.91
59531;BME280;45349;48.692;8.186;2024-03-23T08:39:52;148065.75;;;7.58;89.91
59531;BME280;45349;48.692;8.186;2024-03-23T08:42:19;148057.00;;;7.54;90.30
59531;BME280;45349;48.692;8.186;2024-03-23T08:44:46;148042.09;;;7.48;93.82
59531;BME280;45349;48.692;8.186;2024-03-23T08:47:15;148029.66;;;7.43;93.34
59531;BME280;45349;48.692;8.186;2024-03-23T08:49:40;148023.47;;;7.41;95.16
59531;BME280;45349;48.692;8.186;2024-03-23T08:52:07;148054.53;;;7.53;94.54
59531;BME280;45349;48.692;8.186;2024-03-23T08:54:33;148068.22;;;7.59;96.96
59531;BME280;45349;48.692;8.186;2024-03-23T08:57:01;148047.06;;;7.50;95.48
59531;BME280;45349;48.692;8.186;2024-03-23T08:59:26;148057.00;;;7.54;93.98
59531;BME280;45349;48.692;8.186;2024-03-23T09:01:53;148120.44;;;7.81;96.68
59531;BME280;45349;48.692;8.186;2024-03-23T09:04:19;148116.69;;;7.79;96.20
59531;BME280;45349;48.692;8.186;2024-03-23T09:06:47;148117.97;;;7.80;95.54
59531;BME280;45349;48.692;8.186;2024-03-23T09:09:12;148105.53;;;7.75;96.45
59531;BME280;45349;48.692;8.186;2024-03-23T09:11:39;148145.31;;;7.91;94.36
59531;BME280;45349;48.692;8.186;2024-03-23T09:14:06;148165.16;;;8.00;95.54
59531;BME280;45349;48.692;8.186;2024-03-23T09:16:34;148202.47;;;8.15;97.12
59531;BME280;45349;48.692;8.186;2024-03-23T09:19:00;148242.25;;;8.32;93.81
59531;BME280;45349;48.692;8.186;2024-03-23T09:21:27;148290.78;;;8.52;93.46
59531;BME280;45349;48.692;8.186;2024-03-23T09:23:52;148349.28;;;8.76;90.16
59531;BME280;45349;48.692;8.186;2024-03-23T09:26:19;148436.31;;;9.12;88.89
59531;BME280;45349;48.692;8.186;2024-03-23T09:28:48;148440.06;;;9.14;86.51
59531;BME280;45349;48.692;8.186;2024-03-23T09:31:16;148534.66;;;9.53;84.88
59531;BME280;45349;48.692;8.186;2024-03-23T09:33:42;148540.88;;;9.56;82.19
59531;BME280;45349;48.692;8.186;2024-03-23T09:36:09;148544.56;;;9.57;76.99
59531;BME280;45349;48.692;8.186;2024-03-23T09:38:35;148477.41;;;9.29;74.53
59531;BME280;45349;48.692;8.186;2024-03-23T09:41:06;148359.22;;;8.80;73.92
59531;BME280;45349;48.692;8.186;2024-03-23T09:43:32;148273.38;;;8.45;75.67
59531;BME280;45349;48.692;8.186;2024-03-23T09:45:59;147965.09;;;7.16;90.62
59531;BME280;45349;48.692;8.186;2024-03-23T09:48:27;147753.94;;;6.28;100.00
59531;BME280;45349;48.692;8.186;2024-03-23T09:50:53;147649.59;;;5.85;100.00
59531;BME280;45349;48.692;8.186;2024-03-23T09:53:19;147607.38;;;5.67;100.00
59531;BME280;45349;48.692;8.186;2024-03-23T09:55:47;147618.56;;;5.72;100.00
59531;BME280;45349;48.692;8.186;2024-03-23T09:58:15;147642.16;;;5.82;100.00
59531;BME280;45349;48.692;8.186;2024-03-23T10:00:41;147678.13;;;5.97;100.00
59531;BME280;45349;48.692;8.186;2024-03-23T10:03:08;147592.47;;;5.61;100.00
59531;BME280;45349;48.692;8.186;2024-03-23T10:05:38;147665.72;;;5.91;100.00
59531;BME280;45349;48.692;8.186;2024-03-23T10:08:18;147674.44;;;5.95;100.00
59531;BME280;45349;48.692;8.186;2024-03-23T10:10:45;147678.13;;;5.97;100.00
59531;BME280;45349;48.692;8.186;2024-03-23T10:13:24;147737.78;;;6.22;100.00
59531;BME280;45349;48.692;8.186;2024-03-23T10:15:55;147747.72;;;6.26;100.00
59531;BME280;45349;48.692;8.186;2024-03-23T10:18:22;147802.38;;;6.48;100.00
59531;BME280;45349;48.692;8.186;2024-03-23T10:21:05;147783.72;;;6.41;100.00
59531;BME280;45349;48.692;8.186;2024-03-23T10:23:31;147910.41;;;6.93;100.00
59531;BME280;45349;48.692;8.186;2024-03-23T10:26:12;147984.97;;;7.24;100.00
59531;BME280;45349;48.692;8.186;2024-03-23T10:28:50;148065.75;;;7.58;100.00
59531;BME280;45349;48.692;8.186;2024-03-23T10:31:18;148130.38;;;7.85;100.00
59531;BME280;45349;48.692;8.186;2024-03-23T10:33:45;148163.94;;;7.99;98.61
59531;BME280;45349;48.692;8.186;2024-03-23T10:36:13;148214.91;;;8.20;95.84
59531;BME280;45349;48.692;8.186;2024-03-23T10:38:40;148208.69;;;8.18;95.53
59531;BME280;45349;48.692;8.186;2024-03-23T10:41:09;148293.28;;;8.53;90.75
59531;BME280;45349;48.692;8.186;2024-03-23T10:43:36;148288.28;;;8.51;91.44
59531;BME280;45349;48.692;8.186;2024-03-23T10:46:03;148229.81;;;8.26;90.98
59531;BME280;45349;48.692;8.186;2024-03-23T10:48:30;148279.56;;;8.47;92.58
59531;BME280;45349;48.692;8.186;2024-03-23T10:50:56;148278.34;;;8.47;92.25
59531;BME280;45349;48.692;8.186;2024-03-23T10:53:26;148303.22;;;8.57;88.75
59531;BME280;45349;48.692;8.186;2024-03-23T10:55:52;148379.13;;;8.89;93.86
59531;BME280;45349;48.692;8.186;2024-03-23T10:58:23;148339.31;;;8.72;83.86
59531;BME280;45349;48.692;8.186;2024-03-23T11:00:49;148326.88;;;8.67;91.02
59531;BME280;45349;48.692;8.186;2024-03-23T11:03:32;148338.06;;;8.71;90.20
59531;BME280;45349;48.692;8.186;2024-03-23T11:06:02;148323.13;;;8.65;92.00
59531;BME280;45349;48.692;8.186;2024-03-23T11:08:34;148171.41;;;8.02;90.94
59531;BME280;45349;48.692;8.186;2024-03-23T11:11:20;148152.75;;;7.94;89.45
59531;BME280;45349;48.692;8.186;2024-03-23T11:13:48;148028.44;;;7.43;91.51
59531;BME280;45349;48.692;8.186;2024-03-23T11:16:22;148022.25;;;7.40;94.48
59531;BME280;45349;48.692;8.186;2024-03-23T11:18:49;148012.31;;;7.36;94.29
59531;BME280;45349;48.692;8.186;2024-03-23T11:24:19;148038.41;;;7.47;97.70
59531;BME280;45349;48.692;8.186;2024-03-23T11:26:46;148073.19;;;7.61;94.89
59531;BME280;45349;48.692;8.186;2024-03-23T11:29:14;148129.13;;;7.85;95.84
59531;BME280;45349;48.692;8.186;2024-03-23T11:31:45;148055.78;;;7.54;94.67
59531;BME280;45349;48.692;8.186;2024-03-23T11:34:12;148065.75;;;7.58;96.00
59531;BME280;45349;48.692;8.186;2024-03-23T11:36:38;148002.38;;;7.32;96.30
59531;BME280;45349;48.692;8.186;2024-03-23T11:39:12;147970.06;;;7.18;97.54
59531;BME280;45349;48.692;8.186;2024-03-23T11:41:46;147983.72;;;7.24;98.81
59531;BME280;45349;48.692;8.186;2024-03-23T11:44:17;148019.78;;;7.39;96.53
59531;BME280;45349;48.692;8.186;2024-03-23T11:46:43;147980.00;;;7.22;93.95
59531;BME280;45349;48.692;8.186;2024-03-23T11:49:20;148016.03;;;7.37;94.53
59531;BME280;45349;48.692;8.186;2024-03-23T11:51:47;148054.53;;;7.53;93.68
59531;BME280;45349;48.692;8.186;2024-03-23T11:54:14;148149.00;;;7.93;92.43
59531;BME280;45349;48.692;8.186;2024-03-23T11:56:40;148192.50;;;8.11;90.27
59531;BME280;45349;48.692;8.186;2024-03-23T11:59:08;148319.41;;;8.64;86.65
59531;BME280;45349;48.692;8.186;2024-03-23T12:01:33;148249.72;;;8.35;88.62
59531;BME280;45349;48.692;8.186;2024-03-23T12:04:00;148269.63;;;8.43;85.85
59531;BME280;45349;48.692;8.186;2024-03-23T12:06:26;148203.72;;;8.16;86.37
59531;BME280;45349;48.692;8.186;2024-03-23T12:08:52;148131.59;;;7.86;86.30
59531;BME280;45349;48.692;8.186;2024-03-23T12:11:18;148195.00;;;8.12;85.81
59531;BME280;45349;48.692;8.186;2024-03-23T12:13:45;148116.69;;;7.79;87.69
59531;BME280;45349;48.692;8.186;2024-03-23T12:16:15;148091.81;;;7.69;89.90
59531;BME280;45349;48.692;8.186;2024-03-23T12:18:43;148146.53;;;7.92;89.11
59531;BME280;45349;48.692;8.186;2024-03-23T12:21:09;148124.16;;;7.82;88.30
59531;BME280;45349;48.692;8.186;2024-03-23T12:23:39;148149.00;;;7.93;86.07
59531;BME280;45349;48.692;8.186;2024-03-23T12:26:04;148176.38;;;8.04;85.76
59531;BME280;45349;48.692;8.186;2024-03-23T12:28:31;148244.75;;;8.33;85.83
59531;BME280;45349;48.692;8.186;2024-03-23T12:30:57;148354.25;;;8.78;87.02
59531;BME280;45349;48.692;8.186;2024-03-23T12:33:25;148450.03;;;9.18;80.93
59531;BME280;45349;48.692;8.186;2024-03-23T12:35:51;148534.66;;;9.53;80.82
59531;BME280;45349;48.692;8.186;2024-03-23T12:38:19;148657.88;;;10.04;78.32
59531;BME280;45349;48.692;8.186;2024-03-23T12:40:46;148696.47;;;10.21;75.06
59531;BME280;45349;48.692;8.186;2024-03-23T12:43:13;148669.06;;;10.09;78.42
59531;BME280;45349;48.692;8.186;2024-03-23T12:45:39;148852.19;;;10.85;79.20
59531;BME280;45349;48.692;8.186;2024-03-23T12:48:07;148839.72;;;10.80;74.57
59531;BME280;45349;48.692;8.186;2024-03-23T12:50:34;148813.53;;;10.69;73.09
59531;BME280;45349;48.692;8.186;2024-03-23T12:53:00;148702.66;;;10.23;77.56
59531;BME280;45349;48.692;8.186;2024-03-23T12:55:26;148469.94;;;9.26;79.93
59531;BME280;45349;48.692;8.186;2024-03-23T12:57:53;148512.25;;;9.44;81.42
59531;BME280;45349;48.692;8.186;2024-03-23T13:00:18;148464.97;;;9.24;79.67
59531;BME280;45349;48.692;8.186;2024-03-23T13:02:45;148426.38;;;9.08;82.08
59531;BME280;45349;48.692;8.186;2024-03-23T13:05:11;148269.63;;;8.43;85.56
59531;BME280;45349;48.692;8.186;2024-03-23T13:07:39;148270.88;;;8.44;84.89
59531;BME280;45349;48.692;8.186;2024-03-23T13:10:05;148186.31;;;8.08;83.05
59531;BME280;45349;48.692;8.186;2024-03-23T13:12:32;148071.94;;;7.61;86.24
59531;BME280;45349;48.692;8.186;2024-03-23T13:14:58;148076.91;;;7.63;85.25
59531;BME280;45349;48.692;8.186;2024-03-23T13:17:25;148151.50;;;7.94;82.47
59531;BME280;45349;48.692;8.186;2024-03-23T13:19:52;148246.00;;;8.33;80.79
59531;BME280;45349;48.692;8.186;2024-03-23T13:22:18;148203.72;;;8.16;83.92
59531;BME280;45349;48.692;8.186;2024-03-23T13:24:45;148152.75;;;7.94;84.44
59531;BME280;45349;48.692;8.186;2024-03-23T13:27:12;148034.63;;;7.45;88.83
59531;BME280;45349;48.692;8.186;2024-03-23T13:29:38;148057.00;;;7.54;87.63
59531;BME280;45349;48.692;8.186;2024-03-23T13:32:05;148182.56;;;8.07;88.83
59531;BME280;45349;48.692;8.186;2024-03-23T13:34:31;148274.59;;;8.45;84.67
59531;BME280;45349;48.692;8.186;2024-03-23T13:36:58;148319.41;;;8.64;82.63
59531;BME280;45349;48.692;8.186;2024-03-23T13:39:24;148305.72;;;8.58;83.94
59531;BME280;45349;48.692;8.186;2024-03-23T13:41:54;148318.16;;;8.63;79.89
59531;BME280;45349;48.692;8.186;2024-03-23T13:44:20;148318.16;;;8.63;84.03
59531;BME280;45349;48.692;8.186;2024-03-23T13:46:47;148304.50;;;8.57;81.59